createdAt,value
2023-03-27T00:02:47.218Z,69.07
2023-03-27T00:06:46.806Z,75.83
2023-03-27T00:10:46.966Z,73.31
2023-03-27T00:14:47.164Z,74.88
2023-03-27T00:18:47.371Z,70.18
2023-03-27T00:22:47.667Z,68.73
2023-03-27T00:26:47.802Z,67.36
2023-03-27T00:30:48.129Z,69.13
2023-03-27T00:34:48.436Z,66.76
2023-03-27T00:38:48.640Z,61.61
2023-03-27T00:42:48.869Z,61.66
2023-03-27T00:46:49.268Z,64.34
2023-03-27T00:50:49.340Z,64.29
2023-03-27T00:54:49.445Z,65.00
2023-03-27T00:58:49.541Z,64.69
2023-03-27T01:02:49.817Z,63.11
2023-03-27T01:06:49.764Z,63.96
2023-03-27T01:10:49.866Z,61.84
2023-03-27T01:14:49.973Z,65.94
2023-03-27T01:18:50.074Z,65.35
2023-03-27T01:22:50.169Z,64.98
2023-03-27T01:26:50.247Z,68.16
2023-03-27T01:30:50.593Z,66.98
2023-03-27T01:35:01.978Z,65.99
2023-03-27T01:38:51.904Z,63.14
2023-03-27T01:42:51.003Z,60.59
2023-03-27T01:46:51.212Z,64.04
2023-03-27T01:50:51.434Z,57.83
2023-03-27T01:54:52.134Z,62.72
2023-03-27T01:58:52.036Z,64.06
2023-03-27T02:02:52.373Z,62.39
2023-03-27T02:06:52.624Z,63.05
2023-03-27T02:10:52.907Z,59.31
2023-03-27T02:14:53.186Z,58.24
2023-03-27T02:18:53.455Z,58.35
2023-03-27T02:22:53.788Z,60.29
2023-03-27T02:26:53.977Z,59.50
2023-03-27T02:31:05.867Z,62.57
2023-03-27T02:34:55.362Z,59.10
2023-03-27T02:38:54.464Z,57.37
2023-03-27T02:42:54.573Z,58.97
2023-03-27T02:46:54.797Z,57.66
2023-03-27T02:50:55.165Z,55.21
2023-03-27T02:54:55.357Z,58.94
2023-03-27T02:58:55.635Z,56.43
2023-03-27T03:02:56.017Z,58.07
2023-03-27T03:06:56.156Z,54.68
2023-03-27T03:10:56.683Z,56.50
2023-03-27T03:14:56.666Z,57.86
2023-03-27T03:18:56.920Z,57.94
2023-03-27T03:22:57.205Z,56.90
2023-03-27T03:26:57.678Z,59.62
2023-03-27T03:30:57.892Z,55.77
2023-03-27T03:34:58.028Z,57.02
2023-03-27T03:38:58.284Z,56.46
2023-03-27T03:42:58.617Z,55.01
2023-03-27T03:46:58.861Z,58.02
2023-03-27T03:50:59.211Z,55.87
2023-03-27T03:54:59.413Z,58.60
2023-03-27T03:58:59.607Z,55.87
2023-03-27T04:02:59.934Z,55.88
2023-03-27T04:07:00.131Z,56.21
2023-03-27T04:11:00.397Z,55.47
2023-03-27T04:15:00.764Z,54.84
2023-03-27T04:19:00.881Z,56.08
2023-03-27T04:23:01.126Z,58.70
2023-03-27T04:27:01.432Z,55.39
2023-03-27T04:31:01.634Z,56.02
2023-03-27T04:35:01.927Z,53.94
2023-03-27T04:39:02.137Z,59.11
2023-03-27T04:43:02.455Z,56.74
2023-03-27T04:47:02.675Z,53.40
2023-03-27T04:51:02.850Z,57.22
2023-03-27T04:55:04.229Z,55.93
2023-03-27T04:59:03.345Z,53.54
2023-03-27T05:03:03.707Z,55.93
2023-03-27T05:07:03.945Z,55.94
2023-03-27T05:11:04.805Z,58.99
2023-03-27T05:15:04.322Z,58.64
2023-03-27T05:19:04.559Z,53.97
2023-03-27T05:23:04.796Z,54.52
2023-03-27T05:27:05.056Z,65.87
2023-03-27T05:31:05.470Z,73.81
2023-03-27T05:35:05.553Z,81.21
2023-03-27T05:39:05.632Z,84.87
2023-03-27T05:43:05.723Z,89.31
2023-03-27T05:47:05.817Z,91.70
2023-03-27T05:51:05.911Z,92.97
2023-03-27T05:55:06.031Z,93.12
2023-03-27T05:59:06.316Z,94.95
2023-03-27T06:03:06.596Z,95.93
2023-03-27T06:07:06.715Z,98.14
2023-03-27T06:11:06.919Z,97.33
2023-03-27T06:15:07.213Z,99.17
2023-03-27T06:19:07.353Z,99.07
2023-03-27T06:23:07.612Z,99.36
2023-03-27T06:27:10.365Z,100.58
2023-03-27T06:31:08.017Z,99.25
2023-03-27T06:35:07.919Z,100.28
2023-03-27T06:39:07.993Z,100.89
2023-03-27T06:43:08.108Z,101.30
2023-03-27T06:47:08.311Z,100.31
2023-03-27T06:51:08.219Z,101.46
2023-03-27T06:55:08.272Z,102.47
2023-03-27T06:59:09.319Z,103.16
2023-03-27T07:03:08.447Z,102.31
2023-03-27T07:07:08.468Z,102.24
2023-03-27T07:11:12.169Z,102.24
2023-03-27T07:15:08.611Z,103.53
2023-03-27T07:19:08.691Z,106.17
2023-03-27T07:23:08.755Z,105.76
2023-03-27T07:27:08.818Z,103.71
2023-03-27T07:31:20.089Z,104.54
2023-03-27T07:35:09.926Z,105.27
2023-03-27T07:39:08.987Z,104.09
2023-03-27T07:43:09.096Z,103.55
2023-03-27T07:47:09.249Z,106.29
2023-03-27T07:51:13.735Z,103.26
2023-03-27T07:55:09.514Z,105.51
2023-03-27T07:59:09.612Z,106.82
2023-03-27T08:03:09.823Z,109.10
2023-03-27T08:07:09.728Z,105.83
2023-03-27T08:11:23.034Z,107.02
2023-03-27T08:15:10.847Z,108.38
2023-03-27T08:19:09.959Z,130.90
2023-03-27T08:23:10.044Z,177.12
2023-03-27T08:27:10.125Z,250.00
2023-03-27T08:31:10.266Z,250.00
2023-03-27T08:35:10.296Z,250.00
2023-03-27T08:39:10.353Z,250.22
2023-03-27T08:43:10.280Z,249.60
2023-03-27T08:47:10.381Z,250.00
2023-03-27T08:51:10.398Z,250.00
2023-03-27T08:55:10.284Z,249.76
2023-03-27T08:59:10.356Z,250.00
2023-03-27T09:03:10.580Z,249.99
2023-03-27T09:07:10.497Z,249.90
2023-03-27T09:11:10.567Z,250.00
2023-03-27T09:15:10.697Z,248.14
2023-03-27T09:19:11.732Z,244.45
2023-03-27T09:23:10.877Z,122.80
2023-03-27T09:27:11.131Z,155.69
2023-03-27T09:31:11.359Z,164.44
2023-03-27T09:35:11.297Z,170.54
2023-03-27T09:39:11.316Z,180.92
2023-03-27T09:43:11.377Z,191.94
2023-03-27T09:47:11.299Z,142.75
2023-03-27T09:51:11.371Z,155.50
2023-03-27T09:55:11.411Z,151.83
2023-03-27T09:59:11.411Z,169.37
2023-03-27T10:03:11.537Z,175.40
2023-03-27T10:07:11.411Z,183.74
2023-03-27T10:11:11.421Z,195.79
2023-03-27T10:15:11.412Z,195.29
2023-03-27T10:19:11.409Z,197.73
2023-03-27T10:23:11.428Z,198.29
2023-03-27T10:27:12.328Z,199.78
2023-03-27T10:31:11.505Z,198.61
2023-03-27T10:35:11.472Z,198.87
2023-03-27T10:39:11.730Z,198.34
2023-03-27T10:43:12.717Z,196.92
2023-03-27T10:47:12.003Z,196.51
2023-03-27T10:51:12.057Z,196.00
2023-03-27T10:55:12.118Z,194.65
2023-03-27T10:59:12.164Z,193.95
2023-03-27T11:03:12.271Z,193.03
2023-03-27T11:07:13.122Z,192.37
2023-03-27T11:11:13.264Z,191.30
2023-03-27T11:15:12.418Z,190.69
2023-03-27T11:19:12.541Z,190.63
2023-03-27T11:23:12.591Z,189.26
2023-03-27T11:27:14.430Z,188.70
2023-03-27T11:31:13.378Z,187.46
2023-03-27T11:35:12.913Z,186.50
2023-03-27T11:39:13.007Z,186.77
2023-03-27T11:43:13.132Z,186.48
2023-03-27T11:47:13.216Z,186.33
2023-03-27T11:51:13.355Z,184.76
2023-03-27T11:55:13.481Z,184.87
2023-03-27T11:59:13.628Z,183.45
2023-03-27T12:03:13.852Z,182.83
2023-03-27T12:07:15.398Z,182.95
2023-03-27T12:11:13.997Z,181.41
2023-03-27T12:15:14.082Z,181.78
2023-03-27T12:19:27.761Z,181.44
2023-03-27T12:23:15.219Z,181.57
2023-03-27T12:27:14.299Z,179.73
2023-03-27T12:31:14.380Z,179.07
2023-03-27T12:35:14.452Z,177.21
2023-03-27T12:39:15.534Z,177.48
2023-03-27T12:43:14.902Z,176.41
2023-03-27T12:47:14.694Z,176.33
2023-03-27T12:51:14.773Z,175.18
2023-03-27T12:55:14.908Z,175.13
2023-03-27T12:59:15.124Z,173.79
2023-03-27T13:03:15.374Z,173.05
2023-03-27T13:07:16.389Z,172.36
2023-03-27T13:11:15.693Z,172.04
2023-03-27T13:15:15.920Z,171.23
2023-03-27T13:19:16.161Z,169.95
2023-03-27T13:23:16.337Z,169.00
2023-03-27T13:27:16.530Z,167.41
2023-03-27T13:31:16.761Z,166.18
2023-03-27T13:35:16.857Z,165.22
2023-03-27T13:39:16.950Z,161.68
2023-03-27T13:41:06.590Z,25.00
2023-03-27T13:42:06.578Z,25.00
2023-03-27T13:43:06.567Z,25.00
2023-03-27T13:44:06.554Z,25.00
2023-03-27T13:45:06.535Z,25.00
2023-03-27T13:46:06.557Z,25.27
2023-03-27T13:47:08.553Z,25.18
2023-03-27T13:48:06.672Z,25.31
2023-03-27T13:49:06.647Z,25.10
2023-03-27T13:50:06.624Z,24.94
2023-03-27T13:51:06.628Z,22.53
2023-03-27T13:52:06.647Z,22.06
2023-03-27T13:53:06.642Z,26.51
2023-03-27T13:54:06.674Z,27.24
2023-03-27T13:55:06.736Z,27.03
2023-03-27T13:56:06.648Z,27.69
2023-03-27T13:57:06.677Z,26.69
2023-03-27T13:58:06.657Z,26.69
2023-03-27T13:59:07.263Z,28.25
2023-03-27T14:00:06.770Z,26.53
2023-03-27T14:01:06.629Z,27.99
2023-03-27T14:02:06.643Z,26.62
2023-03-27T14:03:06.749Z,26.46
2023-03-27T14:04:06.665Z,25.22
2023-03-27T14:05:06.634Z,28.23
2023-03-27T14:06:06.630Z,27.11
2023-03-27T14:07:06.634Z,26.08
2023-03-27T14:08:06.633Z,26.21
2023-03-27T14:09:06.628Z,26.24
2023-03-27T14:10:06.631Z,25.73
2023-03-27T14:11:07.122Z,26.76
2023-03-27T14:12:06.634Z,26.75
2023-03-27T14:13:06.633Z,30.27
2023-03-27T14:14:06.645Z,27.05
2023-03-27T14:15:07.982Z,26.59
2023-03-27T14:16:06.812Z,28.58
2023-03-27T14:17:06.777Z,26.78
2023-03-27T14:18:06.873Z,28.07
2023-03-27T14:19:06.810Z,27.72
2023-03-27T14:20:06.792Z,26.49
2023-03-27T14:21:06.776Z,28.21
2023-03-27T14:22:07.270Z,26.74
2023-03-27T14:23:06.761Z,25.87
2023-03-27T14:24:06.754Z,25.04
2023-03-27T14:25:06.738Z,27.61
2023-03-27T14:26:06.762Z,25.00
2023-03-27T14:27:06.728Z,29.11
2023-03-27T14:28:06.797Z,28.27
2023-03-27T14:29:06.804Z,26.86
2023-03-27T14:30:06.742Z,25.06
2023-03-27T14:31:06.740Z,26.66
2023-03-27T14:32:06.770Z,26.44
2023-03-27T14:33:06.841Z,28.52
2023-03-27T14:34:06.712Z,25.90
2023-03-27T14:35:06.713Z,28.35
2023-03-27T14:36:06.750Z,28.37
2023-03-27T14:37:06.722Z,28.03
2023-03-27T14:38:06.760Z,27.78
2023-03-27T14:39:06.693Z,28.14
2023-03-27T14:40:06.699Z,28.91
2023-03-27T14:41:06.694Z,28.38
2023-03-27T14:42:06.690Z,29.05
2023-03-27T14:43:06.695Z,29.09
2023-03-27T14:44:07.347Z,27.58
2023-03-27T14:45:06.697Z,28.47
2023-03-27T14:46:06.726Z,30.20
2023-03-27T14:47:06.700Z,29.52
2023-03-27T14:48:06.760Z,26.10
2023-03-27T14:49:06.767Z,28.17
2023-03-27T14:50:06.724Z,26.88
2023-03-27T14:51:06.732Z,26.66
2023-03-27T14:52:06.735Z,28.55
2023-03-27T14:53:06.735Z,27.04
2023-03-27T14:54:06.761Z,26.66
2023-03-27T14:55:06.774Z,28.41
2023-03-27T14:56:06.779Z,25.16
2023-03-27T14:57:07.859Z,26.50
2023-03-27T14:58:07.717Z,25.00
2023-03-27T14:59:06.802Z,31.05
2023-03-27T15:00:06.827Z,27.76
2023-03-27T15:01:06.881Z,27.72
2023-03-27T15:02:06.833Z,27.84
2023-03-27T15:03:06.892Z,29.84
2023-03-27T15:04:07.005Z,27.42
2023-03-27T15:05:06.865Z,29.52
2023-03-27T15:06:06.873Z,27.23
2023-03-27T15:07:09.069Z,25.00
2023-03-27T15:08:06.921Z,28.23
2023-03-27T15:09:06.930Z,28.27
2023-03-27T15:10:06.909Z,28.72
2023-03-27T15:11:06.918Z,25.00
2023-03-27T15:12:06.986Z,28.84
2023-03-27T15:13:06.922Z,27.16
2023-03-27T15:14:06.912Z,28.02
2023-03-27T15:15:06.914Z,28.38
2023-03-27T15:16:06.954Z,27.68
2023-03-27T15:17:07.011Z,26.76
2023-03-27T15:18:06.896Z,25.23
2023-03-27T15:19:06.966Z,29.66
2023-03-27T15:20:06.867Z,26.90
2023-03-27T15:21:06.856Z,26.13
2023-03-27T15:22:07.800Z,27.54
2023-03-27T15:23:06.827Z,27.68
2023-03-27T15:24:06.837Z,26.02
2023-03-27T15:25:06.802Z,26.34
2023-03-27T15:26:06.812Z,27.14
2023-03-27T15:27:06.793Z,25.72
2023-03-27T15:28:08.297Z,25.52
2023-03-27T15:29:06.772Z,26.68
2023-03-27T15:30:06.754Z,26.23
2023-03-27T15:31:06.773Z,26.35
2023-03-27T15:32:06.717Z,28.36
2023-03-27T15:33:06.770Z,27.63
2023-03-27T15:34:06.704Z,30.46
2023-03-27T15:35:06.671Z,30.04
2023-03-27T15:36:06.788Z,27.92
2023-03-27T15:37:06.644Z,27.92
2023-03-27T15:38:06.633Z,25.69
2023-03-27T15:39:06.614Z,26.73
2023-03-27T15:40:06.607Z,27.12
2023-03-27T15:41:06.598Z,29.38
2023-03-27T15:42:06.597Z,27.59
2023-03-27T15:43:06.564Z,29.98
2023-03-27T15:44:06.559Z,26.61
2023-03-27T15:45:06.544Z,26.70
2023-03-27T15:46:06.551Z,28.75
2023-03-27T15:47:06.548Z,28.27
2023-03-27T15:48:06.625Z,29.50
2023-03-27T15:49:06.486Z,28.97
2023-03-27T15:50:06.465Z,27.21
2023-03-27T15:51:06.538Z,28.08
2023-03-27T15:52:06.437Z,27.64
2023-03-27T15:53:06.423Z,28.25
2023-03-27T15:54:06.416Z,26.38
2023-03-27T15:55:06.449Z,28.74
2023-03-27T15:56:06.392Z,26.45
2023-03-27T15:57:09.267Z,26.78
2023-03-27T15:58:06.367Z,27.14
2023-03-27T15:59:06.368Z,27.28
2023-03-27T16:00:06.415Z,27.88
2023-03-27T16:01:18.394Z,28.68
2023-03-27T16:02:07.398Z,27.04
2023-03-27T16:03:06.502Z,27.35
2023-03-27T16:04:06.407Z,28.30
2023-03-27T16:05:06.292Z,26.62
2023-03-27T16:06:06.352Z,26.91
2023-03-27T16:07:06.307Z,31.17
2023-03-27T16:08:06.527Z,27.15
2023-03-27T16:09:06.247Z,28.28
2023-03-27T16:10:06.241Z,27.09
2023-03-27T16:11:06.249Z,27.48
2023-03-27T16:12:06.224Z,26.89
2023-03-27T16:13:06.813Z,30.24
2023-03-27T16:14:06.216Z,28.11
2023-03-27T16:15:08.382Z,27.10
2023-03-27T16:16:06.271Z,26.43
2023-03-27T16:17:06.269Z,27.58
2023-03-27T16:18:06.349Z,26.20
2023-03-27T16:19:06.340Z,28.30
2023-03-27T16:20:06.451Z,26.69
2023-03-27T16:21:06.416Z,28.24
2023-03-27T16:22:06.822Z,27.23
2023-03-27T16:23:06.498Z,27.37
2023-03-27T16:24:06.534Z,28.67
2023-03-27T16:25:06.550Z,25.04
2023-03-27T16:26:06.659Z,29.89
2023-03-27T16:27:06.634Z,27.58
2023-03-27T16:28:06.676Z,25.89
2023-03-27T16:29:06.731Z,27.54
2023-03-27T16:30:06.736Z,27.86
2023-03-27T16:31:06.797Z,29.29
2023-03-27T16:32:06.896Z,31.78
2023-03-27T16:33:06.939Z,28.12
2023-03-27T16:34:06.921Z,30.38
2023-03-27T16:35:06.977Z,29.60
2023-03-27T16:36:07.091Z,28.31
2023-03-27T16:37:07.329Z,28.71
2023-03-27T16:38:07.125Z,26.85
2023-03-27T16:39:07.219Z,26.71
2023-03-27T16:40:07.223Z,26.37
2023-03-27T16:41:07.267Z,27.36
2023-03-27T16:42:07.323Z,28.04
2023-03-27T16:43:07.385Z,29.13
2023-03-27T16:44:08.328Z,26.15
2023-03-27T16:45:07.541Z,28.85
2023-03-27T16:46:07.610Z,29.18
2023-03-27T16:47:07.611Z,27.27
2023-03-27T16:48:07.728Z,29.45
2023-03-27T16:49:07.663Z,29.63
2023-03-27T16:50:11.738Z,29.83
2023-03-27T16:51:07.606Z,29.59
2023-03-27T16:52:07.652Z,29.65
2023-03-27T16:53:07.578Z,29.61
2023-03-27T16:54:07.579Z,26.89
2023-03-27T16:55:07.900Z,29.19
2023-03-27T16:56:07.559Z,26.55
2023-03-27T16:57:08.401Z,26.53
2023-03-27T16:58:07.539Z,28.74
2023-03-27T16:59:08.343Z,28.21
2023-03-27T17:00:07.519Z,29.14
2023-03-27T17:01:07.527Z,28.48
2023-03-27T17:02:07.844Z,25.77
2023-03-27T17:03:07.518Z,27.96
2023-03-27T17:04:07.490Z,27.81
2023-03-27T17:05:07.561Z,25.47
2023-03-27T17:06:07.488Z,30.11
2023-03-27T17:07:07.495Z,30.38
2023-03-27T17:08:07.653Z,28.16
2023-03-27T17:09:07.496Z,27.26
2023-03-27T17:10:08.340Z,28.45
2023-03-27T17:11:07.619Z,26.96
2023-03-27T17:12:07.687Z,27.18
2023-03-27T17:13:07.754Z,26.94
2023-03-27T17:14:07.818Z,26.79
2023-03-27T17:15:07.868Z,25.75
2023-03-27T17:16:07.947Z,27.41
2023-03-27T17:17:08.038Z,27.37
2023-03-27T17:18:08.912Z,28.54
2023-03-27T17:19:08.125Z,27.60
2023-03-27T17:20:08.206Z,27.72
2023-03-27T17:21:08.275Z,27.59
2023-03-27T17:22:08.397Z,27.41
2023-03-27T17:23:08.364Z,28.51
2023-03-27T17:24:09.287Z,27.98
2023-03-27T17:25:08.431Z,27.12
2023-03-27T17:26:11.296Z,28.94
2023-03-27T17:27:08.479Z,29.05
2023-03-27T17:28:08.467Z,29.31
2023-03-27T17:29:08.478Z,28.69
2023-03-27T17:30:08.450Z,28.96
2023-03-27T17:31:08.556Z,29.18
2023-03-27T17:32:08.503Z,29.08
2023-03-27T17:33:08.439Z,28.98
2023-03-27T17:34:08.417Z,26.68
2023-03-27T17:35:08.412Z,27.20
2023-03-27T17:36:08.434Z,27.23
2023-03-27T17:37:08.404Z,29.53
2023-03-27T17:38:08.399Z,26.32
2023-03-27T17:39:08.418Z,26.88
2023-03-27T17:40:08.405Z,27.54
2023-03-27T17:41:08.554Z,28.83
2023-03-27T17:42:08.400Z,28.45
2023-03-27T17:43:08.391Z,26.85
2023-03-27T17:44:08.399Z,25.55
2023-03-27T17:45:08.391Z,27.60
2023-03-27T17:46:08.469Z,26.94
2023-03-27T17:47:09.419Z,27.15
2023-03-27T17:48:08.436Z,27.37
2023-03-27T17:49:08.383Z,27.25
2023-03-27T17:50:08.411Z,27.11
2023-03-27T17:51:09.635Z,27.18
2023-03-27T17:52:08.434Z,29.24
2023-03-27T17:53:08.447Z,26.85
2023-03-27T17:54:08.400Z,26.72
2023-03-27T17:55:08.396Z,27.11
2023-03-27T17:56:08.400Z,27.38
2023-03-27T17:57:08.897Z,27.79
2023-03-27T17:58:09.704Z,25.89
2023-03-27T17:59:08.465Z,30.83
2023-03-27T18:00:08.550Z,26.85
2023-03-27T18:01:08.488Z,27.86
2023-03-27T18:02:08.512Z,29.07
2023-03-27T18:03:08.566Z,27.64
2023-03-27T18:04:08.660Z,29.05
2023-03-27T18:05:08.548Z,28.13
2023-03-27T18:06:08.571Z,28.14
2023-03-27T18:07:08.565Z,27.08
2023-03-27T18:08:08.597Z,28.18
2023-03-27T18:09:08.589Z,25.80
2023-03-27T18:10:08.611Z,27.24
2023-03-27T18:11:08.708Z,29.43
2023-03-27T18:12:08.640Z,29.40
2023-03-27T18:13:08.652Z,27.26
2023-03-27T18:14:08.660Z,29.04
2023-03-27T18:15:08.686Z,27.00
2023-03-27T18:16:08.917Z,27.48
2023-03-27T18:17:08.764Z,28.77
2023-03-27T18:18:08.746Z,29.43
2023-03-27T18:19:08.752Z,26.69
2023-03-27T18:20:08.739Z,28.74
2023-03-27T18:21:08.758Z,28.08
2023-03-27T18:22:08.785Z,26.88
2023-03-27T18:23:08.797Z,28.31
2023-03-27T18:24:08.819Z,28.89
2023-03-27T18:25:08.845Z,26.52
2023-03-27T18:26:08.835Z,30.97
2023-03-27T18:27:08.852Z,26.91
2023-03-27T18:28:08.880Z,27.45
2023-03-27T18:29:08.873Z,25.60
2023-03-27T18:30:08.885Z,29.18
2023-03-27T18:31:08.963Z,28.62
2023-03-27T18:32:08.918Z,25.14
2023-03-27T18:33:08.933Z,27.23
2023-03-27T18:34:08.947Z,29.69
2023-03-27T18:35:08.927Z,31.66
2023-03-27T18:36:08.997Z,27.23
2023-03-27T18:37:08.964Z,28.86
2023-03-27T18:38:08.982Z,27.30
2023-03-27T18:39:08.993Z,28.82
2023-03-27T18:40:08.984Z,27.58
2023-03-27T18:41:08.999Z,25.93
2023-03-27T18:42:09.088Z,27.74
2023-03-27T18:43:09.101Z,28.01
2023-03-27T18:44:09.057Z,28.01
2023-03-27T18:45:09.080Z,28.14
2023-03-27T18:46:09.112Z,28.91
2023-03-27T18:47:09.897Z,30.35
2023-03-27T18:48:09.149Z,27.66
2023-03-27T18:49:21.585Z,25.85
2023-03-27T18:50:10.148Z,26.16
2023-03-27T18:51:09.138Z,26.82
2023-03-27T18:52:09.154Z,26.52
2023-03-27T18:53:09.252Z,27.60
2023-03-27T18:54:09.177Z,28.42
2023-03-27T18:55:09.189Z,30.00
2023-03-27T18:56:09.184Z,30.40
2023-03-27T18:57:09.243Z,26.42
2023-03-27T18:58:09.214Z,26.20
2023-03-27T18:59:09.216Z,28.46
2023-03-27T19:00:09.230Z,26.74
2023-03-27T19:01:09.297Z,27.81
2023-03-27T19:02:09.273Z,27.01
2023-03-27T19:03:09.460Z,28.33
2023-03-27T19:04:09.270Z,28.87
2023-03-27T19:05:09.342Z,27.41
2023-03-27T19:06:09.294Z,27.99
2023-03-27T19:07:09.389Z,25.00
2023-03-27T19:08:09.408Z,26.26
2023-03-27T19:09:09.337Z,28.26
2023-03-27T19:10:09.364Z,27.66
2023-03-27T19:11:09.383Z,29.40
2023-03-27T19:12:09.371Z,26.86
2023-03-27T19:13:09.399Z,30.26
2023-03-27T19:14:09.415Z,28.95
2023-03-27T19:15:19.866Z,29.19
2023-03-27T19:16:14.854Z,29.40
2023-03-27T19:17:10.472Z,29.67
2023-03-27T19:18:09.507Z,30.67
2023-03-27T19:19:09.477Z,31.25
2023-03-27T19:20:09.482Z,32.43
2023-03-27T19:21:09.499Z,27.99
2023-03-27T19:22:09.507Z,28.64
2023-03-27T19:23:09.509Z,26.19
2023-03-27T19:24:09.514Z,28.36
2023-03-27T19:25:09.535Z,29.35
2023-03-27T19:26:09.561Z,28.77
2023-03-27T19:27:24.245Z,26.59
2023-03-27T19:28:10.564Z,26.88
2023-03-27T19:29:09.567Z,27.84
2023-03-27T19:30:09.572Z,28.14
2023-03-27T19:31:09.623Z,26.98
2023-03-27T19:32:09.592Z,26.77
2023-03-27T19:33:09.640Z,28.10
2023-03-27T19:34:09.618Z,28.42
2023-03-27T19:35:09.619Z,29.80
2023-03-27T19:36:09.672Z,32.29
2023-03-27T19:37:09.658Z,31.06
2023-03-27T19:38:09.649Z,28.35
2023-03-27T19:39:09.675Z,30.69
2023-03-27T19:40:09.690Z,29.70
2023-03-27T19:41:09.740Z,28.58
2023-03-27T19:42:09.674Z,28.46
2023-03-27T19:43:09.685Z,31.45
2023-03-27T19:44:09.704Z,25.99
2023-03-27T19:45:09.701Z,27.39
2023-03-27T19:47:10.744Z,28.57
2023-03-27T19:48:09.765Z,28.72
2023-03-27T19:49:09.737Z,28.91
2023-03-27T19:50:09.745Z,27.78
2023-03-27T19:51:09.751Z,22.67
2023-03-27T19:52:09.770Z,32.33
2023-03-27T19:53:09.760Z,27.91
2023-03-27T19:54:09.752Z,30.71
2023-03-27T19:55:09.775Z,30.61
2023-03-27T19:56:09.884Z,29.20
2023-03-27T19:57:09.902Z,31.47
2023-03-27T19:58:09.817Z,27.52
2023-03-27T19:59:13.095Z,28.32
2023-03-27T20:00:10.845Z,28.49
2023-03-27T20:01:09.846Z,28.67
2023-03-27T20:02:09.830Z,29.07
2023-03-27T20:03:09.999Z,30.07
2023-03-27T20:04:09.851Z,28.59
2023-03-27T20:05:09.864Z,30.65
2023-03-27T20:06:13.301Z,30.76
2023-03-27T20:07:09.879Z,30.95
2023-03-27T20:08:09.868Z,30.55
2023-03-27T20:09:10.400Z,29.14
2023-03-27T20:10:09.903Z,27.95
2023-03-27T20:11:09.910Z,27.80
2023-03-27T20:12:09.905Z,28.29
2023-03-27T20:13:09.917Z,26.76
2023-03-27T20:14:09.932Z,28.84
2023-03-27T20:15:12.221Z,27.38
2023-03-27T20:16:09.985Z,32.32
2023-03-27T20:17:21.355Z,32.96
2023-03-27T20:18:11.032Z,33.31
2023-03-27T20:19:09.975Z,33.62
2023-03-27T20:20:10.987Z,32.03
2023-03-27T20:21:09.972Z,31.73
2023-03-27T20:22:09.986Z,30.61
2023-03-27T20:23:10.903Z,30.15
2023-03-27T20:24:10.311Z,29.02
2023-03-27T20:25:10.030Z,28.40
2023-03-27T20:26:10.037Z,30.39
2023-03-27T20:27:10.034Z,28.67
2023-03-27T20:28:10.050Z,26.96
2023-03-27T20:29:10.044Z,30.31
2023-03-27T20:30:10.061Z,26.13
2023-03-27T20:31:10.094Z,27.84
2023-03-27T20:32:10.074Z,27.08
2023-03-27T20:33:10.134Z,27.57
2023-03-27T20:34:10.123Z,29.56
2023-03-27T20:35:20.667Z,29.04
2023-03-27T20:36:11.219Z,29.10
2023-03-27T20:37:10.120Z,29.12
2023-03-27T20:38:10.140Z,28.21
2023-03-27T20:39:10.157Z,30.01
2023-03-27T20:40:10.172Z,29.17
2023-03-27T20:41:10.176Z,29.72
2023-03-27T20:42:10.202Z,29.52
2023-03-27T20:43:10.201Z,29.49
2023-03-27T20:44:10.219Z,27.70
2023-03-27T20:45:10.233Z,26.92
2023-03-27T20:46:10.248Z,30.48
2023-03-27T20:47:10.264Z,26.98
2023-03-27T20:48:10.269Z,31.17
2023-03-27T20:49:10.297Z,29.99
2023-03-27T20:50:10.304Z,26.85
2023-03-27T20:51:10.309Z,29.24
2023-03-27T20:52:10.324Z,30.10
2023-03-27T20:53:10.338Z,30.13
2023-03-27T20:54:10.340Z,30.98
2023-03-27T20:55:11.974Z,32.19
2023-03-27T20:56:10.360Z,32.33
2023-03-27T20:57:10.427Z,32.51
2023-03-27T20:58:10.438Z,32.12
2023-03-27T20:59:10.406Z,24.01
2023-03-27T21:00:10.417Z,32.21
2023-03-27T21:01:10.577Z,27.17
2023-03-27T21:02:10.447Z,29.20
2023-03-27T21:03:10.485Z,29.06
2023-03-27T21:04:10.472Z,28.56
2023-03-27T21:05:10.491Z,31.59
2023-03-27T21:06:10.497Z,29.05
2023-03-27T21:07:10.572Z,30.01
2023-03-27T21:08:10.516Z,30.14
2023-03-27T21:09:10.532Z,29.98
2023-03-27T21:10:10.539Z,29.04
2023-03-27T21:11:10.558Z,29.44
2023-03-27T21:12:10.578Z,29.14
2023-03-27T21:13:10.589Z,28.16
2023-03-27T21:14:10.598Z,28.39
2023-03-27T21:15:10.627Z,28.86
2023-03-27T21:16:10.639Z,28.00
2023-03-27T21:17:10.667Z,25.89
2023-03-27T21:18:10.813Z,28.64
2023-03-27T21:19:10.748Z,30.40
2023-03-27T21:20:10.799Z,30.02
2023-03-27T21:21:10.867Z,30.96
2023-03-27T21:22:10.878Z,29.57
2023-03-27T21:23:10.905Z,30.05
2023-03-27T21:24:10.954Z,28.29
2023-03-27T21:25:10.989Z,29.35
2023-03-27T21:26:11.028Z,30.65
2023-03-27T21:27:11.089Z,26.31
2023-03-27T21:28:11.116Z,34.70
2023-03-27T21:29:11.153Z,30.61
2023-03-27T21:30:11.215Z,32.96
2023-03-27T21:31:11.240Z,34.85
2023-03-27T21:32:11.305Z,30.94
2023-03-27T21:33:11.332Z,36.73
2023-03-27T21:34:11.937Z,29.78
2023-03-27T21:35:11.421Z,32.18
2023-03-27T21:36:11.536Z,30.88
2023-03-27T21:37:11.541Z,28.12
2023-03-27T21:38:12.440Z,32.12
2023-03-27T21:39:11.589Z,31.73
2023-03-27T21:40:11.644Z,30.06
2023-03-27T21:41:11.684Z,28.65
2023-03-27T21:42:11.725Z,25.27
2023-03-27T21:43:11.772Z,30.37
2023-03-27T21:44:11.812Z,30.04
2023-03-27T21:45:11.855Z,30.00
2023-03-27T21:46:12.033Z,28.87
2023-03-27T21:47:11.949Z,28.94
2023-03-27T21:48:12.012Z,28.92
2023-03-27T21:49:12.069Z,28.25
2023-03-27T21:50:12.111Z,29.99
2023-03-27T21:51:12.163Z,30.64
2023-03-27T21:52:12.177Z,28.05
2023-03-27T21:53:12.225Z,30.71
2023-03-27T21:54:12.285Z,25.00
2023-03-27T21:55:13.292Z,25.46
2023-03-27T21:56:12.297Z,26.02
2023-03-27T21:57:12.304Z,27.09
2023-03-27T21:58:12.316Z,29.26
2023-03-27T21:59:12.319Z,28.08
2023-03-27T22:00:12.329Z,28.65
2023-03-27T22:01:12.361Z,29.76
2023-03-27T22:02:12.331Z,25.02
2023-03-27T22:03:12.336Z,29.07
2023-03-27T22:04:12.362Z,28.98
2023-03-27T22:05:13.352Z,29.13
2023-03-27T22:06:13.555Z,27.14
2023-03-27T22:07:12.353Z,29.16
2023-03-27T22:08:12.411Z,29.61
2023-03-27T22:09:12.373Z,25.39
2023-03-27T22:10:12.368Z,28.98
2023-03-27T22:11:12.485Z,25.30
2023-03-27T22:12:12.382Z,29.95
2023-03-27T22:13:12.406Z,29.64
2023-03-27T22:14:12.405Z,30.98
2023-03-27T22:15:12.412Z,29.44
2023-03-27T22:16:12.572Z,28.91
2023-03-27T22:17:12.426Z,31.84
2023-03-27T22:18:13.495Z,27.02
2023-03-27T22:19:12.535Z,28.27
2023-03-27T22:20:12.593Z,28.95
2023-03-27T22:21:12.634Z,26.62
2023-03-27T22:22:12.710Z,28.35
2023-03-27T22:23:12.742Z,31.34
2023-03-27T22:24:12.897Z,29.42
2023-03-27T22:25:12.855Z,25.38
2023-03-27T22:26:12.930Z,28.71
2023-03-27T22:27:12.964Z,28.37
2023-03-27T22:28:13.013Z,29.26
2023-03-27T22:29:13.071Z,29.26
2023-03-27T22:30:13.121Z,32.24
2023-03-27T22:31:13.239Z,29.85
2023-03-27T22:32:14.183Z,30.02
2023-03-27T22:33:13.276Z,29.89
2023-03-27T22:34:13.214Z,28.25
2023-03-27T22:35:13.214Z,27.98
2023-03-27T22:36:13.216Z,28.43
2023-03-27T22:37:13.215Z,30.38
2023-03-27T22:38:13.229Z,28.36
2023-03-27T22:39:13.248Z,27.84
2023-03-27T22:40:13.964Z,27.30
2023-03-27T22:41:13.281Z,30.68
2023-03-27T22:42:13.276Z,25.82
2023-03-27T22:43:22.961Z,25.00
2023-03-27T22:44:14.280Z,25.33
2023-03-27T22:45:13.957Z,25.84
2023-03-27T22:46:13.339Z,25.76
2023-03-27T22:47:13.334Z,25.95
2023-03-27T22:48:13.330Z,27.85
2023-03-27T22:49:13.362Z,24.94
2023-03-27T22:50:13.336Z,30.38
2023-03-27T22:51:13.460Z,27.86
2023-03-27T22:52:13.356Z,27.07
2023-03-27T22:53:13.366Z,29.86
2023-03-27T22:54:13.379Z,28.44
2023-03-27T22:55:13.414Z,28.25
2023-03-27T22:56:13.991Z,25.12
2023-03-27T22:57:13.553Z,28.08
2023-03-27T22:58:13.583Z,25.26
2023-03-27T22:59:13.634Z,27.31
2023-03-27T23:00:13.700Z,25.94
2023-03-27T23:01:13.766Z,27.43
2023-03-27T23:02:13.861Z,28.61
2023-03-27T23:03:13.946Z,28.08
2023-03-27T23:04:14.013Z,26.59
2023-03-27T23:05:13.967Z,25.82
2023-03-27T23:06:14.031Z,26.48